sensor_id;sensor_type;location;lat;lon;timestamp;temperature;humidity
22416;DHT22;12204;50.600;4.608;2023-04-21T00:00:27;19.50;66.50
22416;DHT22;12204;50.600;4.608;2023-04-21T00:05:31;19.50;65.70
22416;DHT22;12204;50.600;4.608;2023-04-21T00:10:35;19.50;65.80
22416;DHT22;12204;50.600;4.608;2023-04-21T00:15:40;19.60;65.80
22416;DHT22;12204;50.600;4.608;2023-04-21T00:20:43;19.50;66.60
22416;DHT22;12204;50.600;4.608;2023-04-21T00:25:47;19.50;65.80
22416;DHT22;12204;50.600;4.608;2023-04-21T00:30:52;19.50;65.80
22416;DHT22;12204;50.600;4.608;2023-04-21T00:35:56;19.50;65.80
22416;DHT22;12204;50.600;4.608;2023-04-21T00:41:01;19.50;65.90
22416;DHT22;12204;50.600;4.608;2023-04-21T00:46:06;19.50;66.00
22416;DHT22;12204;50.600;4.608;2023-04-21T00:51:09;19.50;66.00
22416;DHT22;12204;50.600;4.608;2023-04-21T00:56:13;19.50;66.00
22416;DHT22;12204;50.600;4.608;2023-04-21T01:01:18;19.50;66.00
22416;DHT22;12204;50.600;4.608;2023-04-21T01:06:22;19.50;66.10
22416;DHT22;12204;50.600;4.608;2023-04-21T01:11:25;19.50;66.10
22416;DHT22;12204;50.600;4.608;2023-04-21T01:16:31;19.50;66.10
22416;DHT22;12204;50.600;4.608;2023-04-21T01:21:39;19.50;66.10
22416;DHT22;12204;50.600;4.608;2023-04-21T01:26:43;19.50;66.20
22416;DHT22;12204;50.600;4.608;2023-04-21T01:31:50;19.50;66.20
22416;DHT22;12204;50.600;4.608;2023-04-21T01:36:55;19.50;66.20
22416;DHT22;12204;50.600;4.608;2023-04-21T01:41:58;19.50;66.30
22416;DHT22;12204;50.600;4.608;2023-04-21T01:47:02;19.50;66.30
22416;DHT22;12204;50.600;4.608;2023-04-21T01:52:07;19.50;66.30
22416;DHT22;12204;50.600;4.608;2023-04-21T01:57:12;19.40;66.30
22416;DHT22;12204;50.600;4.608;2023-04-21T02:02:15;19.50;66.40
22416;DHT22;12204;50.600;4.608;2023-04-21T02:07:20;19.40;66.30
22416;DHT22;12204;50.600;4.608;2023-04-21T02:12:27;19.50;66.50
22416;DHT22;12204;50.600;4.608;2023-04-21T02:17:30;19.40;66.50
22416;DHT22;12204;50.600;4.608;2023-04-21T02:22:35;19.40;66.40
22416;DHT22;12204;50.600;4.608;2023-04-21T02:27:39;19.40;66.50
22416;DHT22;12204;50.600;4.608;2023-04-21T02:32:42;19.40;66.50
22416;DHT22;12204;50.600;4.608;2023-04-21T02:37:47;19.40;67.30
22416;DHT22;12204;50.600;4.608;2023-04-21T02:42:51;19.40;66.60
22416;DHT22;12204;50.600;4.608;2023-04-21T02:47:55;19.40;66.60
22416;DHT22;12204;50.600;4.608;2023-04-21T02:53:01;19.40;66.60
22416;DHT22;12204;50.600;4.608;2023-04-21T02:58:04;19.40;66.60
22416;DHT22;12204;50.600;4.608;2023-04-21T03:03:08;19.40;66.60
22416;DHT22;12204;50.600;4.608;2023-04-21T03:08:14;19.40;66.70
22416;DHT22;12204;50.600;4.608;2023-04-21T03:13:17;19.40;66.70
22416;DHT22;12204;50.600;4.608;2023-04-21T03:18:20;19.40;66.70
22416;DHT22;12204;50.600;4.608;2023-04-21T03:23:26;19.40;66.70
22416;DHT22;12204;50.600;4.608;2023-04-21T03:28:30;19.40;66.70
22416;DHT22;12204;50.600;4.608;2023-04-21T03:33:33;19.40;66.70
22416;DHT22;12204;50.600;4.608;2023-04-21T03:38:38;19.40;66.70
22416;DHT22;12204;50.600;4.608;2023-04-21T03:43:41;19.40;66.80
22416;DHT22;12204;50.600;4.608;2023-04-21T03:48:45;19.30;66.70
22416;DHT22;12204;50.600;4.608;2023-04-21T03:53:51;19.30;66.80
22416;DHT22;12204;50.600;4.608;2023-04-21T03:58:54;19.40;66.80
22416;DHT22;12204;50.600;4.608;2023-04-21T04:03:58;19.30;67.60
22416;DHT22;12204;50.600;4.608;2023-04-21T04:09:03;19.30;66.80
22416;DHT22;12204;50.600;4.608;2023-04-21T04:14:07;19.40;66.90
22416;DHT22;12204;50.600;4.608;2023-04-21T04:19:10;19.30;66.90
22416;DHT22;12204;50.600;4.608;2023-04-21T04:24:15;19.30;66.90
22416;DHT22;12204;50.600;4.608;2023-04-21T04:29:20;19.30;66.90
22416;DHT22;12204;50.600;4.608;2023-04-21T04:34:24;19.30;67.00
22416;DHT22;12204;50.600;4.608;2023-04-21T04:39:29;19.30;67.00
22416;DHT22;12204;50.600;4.608;2023-04-21T04:44:33;19.30;67.00
22416;DHT22;12204;50.600;4.608;2023-04-21T04:49:37;19.30;67.00
22416;DHT22;12204;50.600;4.608;2023-04-21T04:54:42;19.30;67.00
22416;DHT22;12204;50.600;4.608;2023-04-21T04:59:45;19.30;67.80
22416;DHT22;12204;50.600;4.608;2023-04-21T05:04:49;19.30;67.00
22416;DHT22;12204;50.600;4.608;2023-04-21T05:09:54;19.30;67.10
22416;DHT22;12204;50.600;4.608;2023-04-21T05:14:58;19.30;67.10
22416;DHT22;12204;50.600;4.608;2023-04-21T05:20:03;19.30;67.20
22416;DHT22;12204;50.600;4.608;2023-04-21T05:25:10;19.30;67.10
22416;DHT22;12204;50.600;4.608;2023-04-21T05:30:15;19.30;67.20
22416;DHT22;12204;50.600;4.608;2023-04-21T05:35:19;19.30;67.20
22416;DHT22;12204;50.600;4.608;2023-04-21T05:40:24;19.30;67.20
22416;DHT22;12204;50.600;4.608;2023-04-21T05:45:27;19.30;67.20
22416;DHT22;12204;50.600;4.608;2023-04-21T05:50:31;19.30;67.20
22416;DHT22;12204;50.600;4.608;2023-04-21T05:55:37;19.30;67.20
22416;DHT22;12204;50.600;4.608;2023-04-21T06:00:41;19.30;67.20
22416;DHT22;12204;50.600;4.608;2023-04-21T06:05:44;19.30;67.10
22416;DHT22;12204;50.600;4.608;2023-04-21T06:10:49;19.30;67.20
22416;DHT22;12204;50.600;4.608;2023-04-21T06:15:53;19.20;67.10
22416;DHT22;12204;50.600;4.608;2023-04-21T06:20:56;19.20;67.20
22416;DHT22;12204;50.600;4.608;2023-04-21T06:26:02;19.30;67.20
22416;DHT22;12204;50.600;4.608;2023-04-21T06:31:07;19.30;67.20
22416;DHT22;12204;50.600;4.608;2023-04-21T06:36:16;19.30;67.20
22416;DHT22;12204;50.600;4.608;2023-04-21T06:41:21;19.30;67.20
22416;DHT22;12204;50.600;4.608;2023-04-21T06:46:25;19.20;67.20
22416;DHT22;12204;50.600;4.608;2023-04-21T06:51:29;19.30;67.20
22416;DHT22;12204;50.600;4.608;2023-04-21T06:56:34;19.30;67.20
22416;DHT22;12204;50.600;4.608;2023-04-21T07:01:37;19.30;67.20
22416;DHT22;12204;50.600;4.608;2023-04-21T07:06:41;19.30;67.20
22416;DHT22;12204;50.600;4.608;2023-04-21T07:11:46;19.30;67.20
22416;DHT22;12204;50.600;4.608;2023-04-21T07:16:50;19.30;67.20
22416;DHT22;12204;50.600;4.608;2023-04-21T07:21:53;19.20;67.10
22416;DHT22;12204;50.600;4.608;2023-04-21T07:26:58;19.30;67.20
22416;DHT22;12204;50.600;4.608;2023-04-21T07:32:03;19.20;67.10
22416;DHT22;12204;50.600;4.608;2023-04-21T07:37:07;19.30;67.20
22416;DHT22;12204;50.600;4.608;2023-04-21T07:42:12;19.30;67.20
22416;DHT22;12204;50.600;4.608;2023-04-21T07:47:15;19.30;67.10
22416;DHT22;12204;50.600;4.608;2023-04-21T07:52:19;19.30;67.10
22416;DHT22;12204;50.600;4.608;2023-04-21T07:57:24;19.30;67.10
22416;DHT22;12204;50.600;4.608;2023-04-21T08:02:27;19.30;67.10
22416;DHT22;12204;50.600;4.608;2023-04-21T08:07:31;19.30;67.00
22416;DHT22;12204;50.600;4.608;2023-04-21T08:12:36;19.30;67.00
22416;DHT22;12204;50.600;4.608;2023-04-21T08:17:40;19.30;66.90
22416;DHT22;12204;50.600;4.608;2023-04-21T08:22:43;19.30;66.90
22416;DHT22;12204;50.600;4.608;2023-04-21T08:27:50;19.30;66.90
22416;DHT22;12204;50.600;4.608;2023-04-21T08:32:54;19.30;67.70
22416;DHT22;12204;50.600;4.608;2023-04-21T08:37:58;19.30;67.00
22416;DHT22;12204;50.600;4.608;2023-04-21T08:43:03;19.30;66.90
22416;DHT22;12204;50.600;4.608;2023-04-21T08:48:12;19.30;66.80
22416;DHT22;12204;50.600;4.608;2023-04-21T08:53:17;19.30;66.80
22416;DHT22;12204;50.600;4.608;2023-04-21T08:58:23;19.30;66.90
22416;DHT22;12204;50.600;4.608;2023-04-21T09:03:27;19.30;66.80
22416;DHT22;12204;50.600;4.608;2023-04-21T09:08:35;19.30;66.70
22416;DHT22;12204;50.600;4.608;2023-04-21T09:13:42;19.30;66.70
22416;DHT22;12204;50.600;4.608;2023-04-21T09:18:46;19.30;66.70
22416;DHT22;12204;50.600;4.608;2023-04-21T09:23:50;19.30;66.60
22416;DHT22;12204;50.600;4.608;2023-04-21T09:28:57;19.30;66.70
22416;DHT22;12204;50.600;4.608;2023-04-21T09:34:01;19.30;66.60
22416;DHT22;12204;50.600;4.608;2023-04-21T09:39:04;19.30;66.60
22416;DHT22;12204;50.600;4.608;2023-04-21T09:44:12;19.30;66.50
22416;DHT22;12204;50.600;4.608;2023-04-21T09:49:21;19.30;66.40
22416;DHT22;12204;50.600;4.608;2023-04-21T09:54:29;19.30;66.50
22416;DHT22;12204;50.600;4.608;2023-04-21T09:59:36;19.30;66.40
22416;DHT22;12204;50.600;4.608;2023-04-21T10:04:44;19.30;66.30
22416;DHT22;12204;50.600;4.608;2023-04-21T10:09:51;19.30;66.30
22416;DHT22;12204;50.600;4.608;2023-04-21T10:14:58;19.30;66.30
22416;DHT22;12204;50.600;4.608;2023-04-21T10:20:07;19.30;66.20
22416;DHT22;12204;50.600;4.608;2023-04-21T10:25:13;19.30;66.10
22416;DHT22;12204;50.600;4.608;2023-04-21T10:30:19;19.30;66.10
22416;DHT22;12204;50.600;4.608;2023-04-21T10:35:24;19.30;66.10
22416;DHT22;12204;50.600;4.608;2023-04-21T10:40:34;19.40;66.10
22416;DHT22;12204;50.600;4.608;2023-04-21T10:45:44;19.30;66.00
22416;DHT22;12204;50.600;4.608;2023-04-21T10:50:48;19.30;66.00
22416;DHT22;12204;50.600;4.608;2023-04-21T10:55:52;19.40;66.00
22416;DHT22;12204;50.600;4.608;2023-04-21T11:00:57;19.30;65.90
22416;DHT22;12204;50.600;4.608;2023-04-21T11:06:13;19.30;65.90
22416;DHT22;12204;50.600;4.608;2023-04-21T11:11:21;19.30;65.90
22416;DHT22;12204;50.600;4.608;2023-04-21T11:16:28;19.30;65.80
22416;DHT22;12204;50.600;4.608;2023-04-21T11:21:33;19.40;65.70
22416;DHT22;12204;50.600;4.608;2023-04-21T11:26:36;19.30;65.70
22416;DHT22;12204;50.600;4.608;2023-04-21T11:31:43;19.30;65.70
22416;DHT22;12204;50.600;4.608;2023-04-21T11:36:49;19.30;65.70
22416;DHT22;12204;50.600;4.608;2023-04-21T11:41:53;19.40;65.70
22416;DHT22;12204;50.600;4.608;2023-04-21T11:46:58;19.40;65.70
22416;DHT22;12204;50.600;4.608;2023-04-21T11:52:02;19.40;65.60
22416;DHT22;12204;50.600;4.608;2023-04-21T11:57:07;19.30;65.50
22416;DHT22;12204;50.600;4.608;2023-04-21T12:02:20;19.30;65.50
22416;DHT22;12204;50.600;4.608;2023-04-21T12:07:28;19.40;65.60
22416;DHT22;12204;50.600;4.608;2023-04-21T12:12:36;19.40;65.50
22416;DHT22;12204;50.600;4.608;2023-04-21T12:17:44;19.40;65.50
22416;DHT22;12204;50.600;4.608;2023-04-21T12:22:50;19.40;65.50
22416;DHT22;12204;50.600;4.608;2023-04-21T12:27:57;19.40;65.60
22416;DHT22;12204;50.600;4.608;2023-04-21T12:33:05;19.40;65.50
22416;DHT22;12204;50.600;4.608;2023-04-21T12:38:10;19.40;65.50
22416;DHT22;12204;50.600;4.608;2023-04-21T12:43:13;19.40;66.10
22416;DHT22;12204;50.600;4.608;2023-04-21T12:48:18;19.40;65.50
22416;DHT22;12204;50.600;4.608;2023-04-21T12:53:22;19.40;65.50
22416;DHT22;12204;50.600;4.608;2023-04-21T12:58:25;19.40;65.50
22416;DHT22;12204;50.600;4.608;2023-04-21T13:03:31;19.40;65.50
22416;DHT22;12204;50.600;4.608;2023-04-21T13:08:35;19.40;65.30
22416;DHT22;12204;50.600;4.608;2023-04-21T13:13:38;19.50;65.30
22416;DHT22;12204;50.600;4.608;2023-04-21T13:18:43;19.50;65.40
22416;DHT22;12204;50.600;4.608;2023-04-21T13:23:48;19.50;65.20
22416;DHT22;12204;50.600;4.608;2023-04-21T13:28:52;19.50;65.30
22416;DHT22;12204;50.600;4.608;2023-04-21T13:33:57;19.50;65.20
22416;DHT22;12204;50.600;4.608;2023-04-21T13:39:07;19.50;65.30
22416;DHT22;12204;50.600;4.608;2023-04-21T13:44:11;19.60;65.30
22416;DHT22;12204;50.600;4.608;2023-04-21T13:49:16;19.60;65.20
22416;DHT22;12204;50.600;4.608;2023-04-21T13:54:19;19.60;65.10
22416;DHT22;12204;50.600;4.608;2023-04-21T13:59:23;19.60;65.00
22416;DHT22;12204;50.600;4.608;2023-04-21T14:04:28;19.70;65.00
22416;DHT22;12204;50.600;4.608;2023-04-21T14:09:32;19.70;64.90
22416;DHT22;12204;50.600;4.608;2023-04-21T14:14:36;19.70;64.90
22416;DHT22;12204;50.600;4.608;2023-04-21T14:19:41;19.70;64.80
22416;DHT22;12204;50.600;4.608;2023-04-21T14:24:45;19.70;64.80
22416;DHT22;12204;50.600;4.608;2023-04-21T14:29:48;19.70;64.80
22416;DHT22;12204;50.600;4.608;2023-04-21T14:34:53;19.70;64.80
22416;DHT22;12204;50.600;4.608;2023-04-21T14:39:59;19.70;64.90
22416;DHT22;12204;50.600;4.608;2023-04-21T14:45:05;19.70;64.90
22416;DHT22;12204;50.600;4.608;2023-04-21T14:50:12;19.70;64.90
22416;DHT22;12204;50.600;4.608;2023-04-21T14:55:15;19.70;64.80
22416;DHT22;12204;50.600;4.608;2023-04-21T15:00:20;19.80;64.70
22416;DHT22;12204;50.600;4.608;2023-04-21T15:05:25;19.80;64.80
22416;DHT22;12204;50.600;4.608;2023-04-21T15:10:29;19.70;64.90
22416;DHT22;12204;50.600;4.608;2023-04-21T15:15:33;19.70;64.90
22416;DHT22;12204;50.600;4.608;2023-04-21T15:20:38;19.80;64.80
22416;DHT22;12204;50.600;4.608;2023-04-21T15:25:46;19.70;64.80
22416;DHT22;12204;50.600;4.608;2023-04-21T15:30:49;19.70;64.80
22416;DHT22;12204;50.600;4.608;2023-04-21T15:35:54;19.70;64.80
22416;DHT22;12204;50.600;4.608;2023-04-21T15:40:58;19.70;64.80
22416;DHT22;12204;50.600;4.608;2023-04-21T15:46:02;19.80;64.70
22416;DHT22;12204;50.600;4.608;2023-04-21T15:51:15;19.90;64.60
22416;DHT22;12204;50.600;4.608;2023-04-21T15:56:20;20.00;64.40
22416;DHT22;12204;50.600;4.608;2023-04-21T16:01:23;20.00;64.50
22416;DHT22;12204;50.600;4.608;2023-04-21T16:06:28;20.00;64.80
22416;DHT22;12204;50.600;4.608;2023-04-21T16:11:32;19.90;64.70
22416;DHT22;12204;50.600;4.608;2023-04-21T16:16:36;19.90;64.50
22416;DHT22;12204;50.600;4.608;2023-04-21T16:21:41;19.90;64.50
22416;DHT22;12204;50.600;4.608;2023-04-21T16:26:45;19.90;64.60
22416;DHT22;12204;50.600;4.608;2023-04-21T16:31:48;19.90;64.70
22416;DHT22;12204;50.600;4.608;2023-04-21T16:36:53;19.90;64.80
22416;DHT22;12204;50.600;4.608;2023-04-21T16:41:57;19.80;64.70
22416;DHT22;12204;50.600;4.608;2023-04-21T16:47:01;19.80;64.60
22416;DHT22;12204;50.600;4.608;2023-04-21T16:52:06;19.80;64.60
22416;DHT22;12204;50.600;4.608;2023-04-21T16:57:09;19.80;64.50
22416;DHT22;12204;50.600;4.608;2023-04-21T17:02:13;19.80;64.50
22416;DHT22;12204;50.600;4.608;2023-04-21T17:07:18;19.70;64.60
22416;DHT22;12204;50.600;4.608;2023-04-21T17:12:21;19.70;64.50
22416;DHT22;12204;50.600;4.608;2023-04-21T17:17:25;19.70;64.60
22416;DHT22;12204;50.600;4.608;2023-04-21T17:22:30;19.70;64.70
22416;DHT22;12204;50.600;4.608;2023-04-21T17:27:35;19.70;64.70
22416;DHT22;12204;50.600;4.608;2023-04-21T17:32:41;19.70;64.80
22416;DHT22;12204;50.600;4.608;2023-04-21T17:37:46;19.70;64.90
22416;DHT22;12204;50.600;4.608;2023-04-21T17:42:50;19.70;65.10
22416;DHT22;12204;50.600;4.608;2023-04-21T17:47:53;19.70;65.10
22416;DHT22;12204;50.600;4.608;2023-04-21T17:52:58;19.60;65.10
22416;DHT22;12204;50.600;4.608;2023-04-21T17:58:02;19.60;65.10
22416;DHT22;12204;50.600;4.608;2023-04-21T18:03:05;19.60;65.20
22416;DHT22;12204;50.600;4.608;2023-04-21T18:08:11;19.60;65.30
22416;DHT22;12204;50.600;4.608;2023-04-21T18:13:15;19.60;65.30
22416;DHT22;12204;50.600;4.608;2023-04-21T18:18:18;19.60;65.20
22416;DHT22;12204;50.600;4.608;2023-04-21T18:23:23;19.60;65.30
22416;DHT22;12204;50.600;4.608;2023-04-21T18:28:27;19.50;65.40
22416;DHT22;12204;50.600;4.608;2023-04-21T18:33:31;19.50;65.40
22416;DHT22;12204;50.600;4.608;2023-04-21T18:38:36;19.60;65.50
22416;DHT22;12204;50.600;4.608;2023-04-21T18:43:40;19.50;65.50
22416;DHT22;12204;50.600;4.608;2023-04-21T18:48:43;19.50;65.50
22416;DHT22;12204;50.600;4.608;2023-04-21T18:53:48;19.50;65.60
22416;DHT22;12204;50.600;4.608;2023-04-21T18:58:52;19.50;65.60
22416;DHT22;12204;50.600;4.608;2023-04-21T19:03:56;19.50;65.80
22416;DHT22;12204;50.600;4.608;2023-04-21T19:09:02;19.50;65.70
22416;DHT22;12204;50.600;4.608;2023-04-21T19:14:05;19.50;65.80
22416;DHT22;12204;50.600;4.608;2023-04-21T19:19:09;19.50;65.80
22416;DHT22;12204;50.600;4.608;2023-04-21T19:24:14;19.50;65.90
22416;DHT22;12204;50.600;4.608;2023-04-21T19:29:17;19.50;65.90
22416;DHT22;12204;50.600;4.608;2023-04-21T19:34:21;19.50;66.00
22416;DHT22;12204;50.600;4.608;2023-04-21T19:39:27;19.50;66.00
22416;DHT22;12204;50.600;4.608;2023-04-21T19:44:30;19.50;66.00
22416;DHT22;12204;50.600;4.608;2023-04-21T19:49:34;19.50;66.10
22416;DHT22;12204;50.600;4.608;2023-04-21T19:54:39;19.50;66.10
22416;DHT22;12204;50.600;4.608;2023-04-21T19:59:42;19.50;66.20
22416;DHT22;12204;50.600;4.608;2023-04-21T20:04:46;19.50;66.20
22416;DHT22;12204;50.600;4.608;2023-04-21T20:09:52;19.40;67.00
22416;DHT22;12204;50.600;4.608;2023-04-21T20:14:56;19.50;66.30
22416;DHT22;12204;50.600;4.608;2023-04-21T20:19:59;19.40;66.20
22416;DHT22;12204;50.600;4.608;2023-04-21T20:25:07;19.40;66.40
22416;DHT22;12204;50.600;4.608;2023-04-21T20:30:13;19.40;66.40
22416;DHT22;12204;50.600;4.608;2023-04-21T20:35:17;19.50;66.40
22416;DHT22;12204;50.600;4.608;2023-04-21T20:40:22;19.40;67.20
22416;DHT22;12204;50.600;4.608;2023-04-21T20:45:25;19.40;66.50
22416;DHT22;12204;50.600;4.608;2023-04-21T20:50:30;19.40;66.50
22416;DHT22;12204;50.600;4.608;2023-04-21T20:55:35;19.40;66.50
22416;DHT22;12204;50.600;4.608;2023-04-21T21:00:38;19.40;66.60
22416;DHT22;12204;50.600;4.608;2023-04-21T21:05:42;19.40;66.60
22416;DHT22;12204;50.600;4.608;2023-04-21T21:10:47;19.40;66.60
22416;DHT22;12204;50.600;4.608;2023-04-21T21:15:50;19.40;66.80
22416;DHT22;12204;50.600;4.608;2023-04-21T21:20:54;19.40;66.80
22416;DHT22;12204;50.600;4.608;2023-04-21T21:25:59;19.40;66.80
22416;DHT22;12204;50.600;4.608;2023-04-21T21:31:03;19.40;66.80
22416;DHT22;12204;50.600;4.608;2023-04-21T21:36:07;19.40;66.90
22416;DHT22;12204;50.600;4.608;2023-04-21T21:41:12;19.40;66.90
22416;DHT22;12204;50.600;4.608;2023-04-21T21:46:17;19.40;67.00
22416;DHT22;12204;50.600;4.608;2023-04-21T21:51:21;19.40;67.10
22416;DHT22;12204;50.600;4.608;2023-04-21T21:56:26;19.40;67.00
22416;DHT22;12204;50.600;4.608;2023-04-21T22:01:29;19.30;67.00
22416;DHT22;12204;50.600;4.608;2023-04-21T22:06:33;19.30;67.10
22416;DHT22;12204;50.600;4.608;2023-04-21T22:11:38;19.30;67.10
22416;DHT22;12204;50.600;4.608;2023-04-21T22:16:41;19.40;67.20
22416;DHT22;12204;50.600;4.608;2023-04-21T22:21:47;19.30;67.20
22416;DHT22;12204;50.600;4.608;2023-04-21T22:26:52;19.30;68.00
22416;DHT22;12204;50.600;4.608;2023-04-21T22:31:56;19.40;67.30
22416;DHT22;12204;50.600;4.608;2023-04-21T22:37:00;19.30;67.30
22416;DHT22;12204;50.600;4.608;2023-04-21T22:42:05;19.30;67.30
22416;DHT22;12204;50.600;4.608;2023-04-21T22:47:08;19.40;67.40
22416;DHT22;12204;50.600;4.608;2023-04-21T22:52:15;19.30;67.30
22416;DHT22;12204;50.600;4.608;2023-04-21T22:57:20;19.30;67.40
22416;DHT22;12204;50.600;4.608;2023-04-21T23:02:24;19.30;67.40
22416;DHT22;12204;50.600;4.608;2023-04-21T23:07:28;19.30;67.40
22416;DHT22;12204;50.600;4.608;2023-04-21T23:12:33;19.30;67.50
22416;DHT22;12204;50.600;4.608;2023-04-21T23:17:36;19.30;67.50
22416;DHT22;12204;50.600;4.608;2023-04-21T23:22:40;19.30;67.60
22416;DHT22;12204;50.600;4.608;2023-04-21T23:27:45;19.30;67.60
22416;DHT22;12204;50.600;4.608;2023-04-21T23:32:48;19.30;67.70
22416;DHT22;12204;50.600;4.608;2023-04-21T23:37:52;19.30;67.60
22416;DHT22;12204;50.600;4.608;2023-04-21T23:42:57;19.30;67.70
22416;DHT22;12204;50.600;4.608;2023-04-21T23:48:01;19.30;67.70
22416;DHT22;12204;50.600;4.608;2023-04-21T23:53:05;19.30;67.70
22416;DHT22;12204;50.600;4.608;2023-04-21T23:58:10;19.20;67.70
